SKLT/LET METAR and TAF weather

Enter ICAO airport designator
Station Type Date Time Source
SKLT METAR 2019/04/18 22:00 UTC NOAA

SKLT 182200Z 33003KT 9999 FEW020 BKN200 28/26 A2971


Station Type Date Time Source
SKLT Decoded METAR 2019/04/18 22:00 UTC NOAA

Leticia / Vasquez Cobo, Colombia (SKLT) 04-10S 069-57W 84M
Apr 18, 2019 - 06:00 PM EDT / 2019.04.18 2200 UTC
Wind: from the NNW (330 degrees) at 3 MPH (3 KT):0
Visibility: greater than 7 mile(s):0
Sky conditions: mostly cloudy
Temperature: 82 F (28 C)
Dew Point: 78 F (26 C)
Relative Humidity: 88%
Pressure (altimeter): 29.71 in. Hg (1006 hPa)
ob: SKLT 182200Z 33003KT 9999 FEW020 BKN200 28/26 A2971
cycle: 22

Station Type Date Time Source
SKLT TAF 2019/04/18 18:30 UTC NOAA

TAF SKLT 181700Z 1818/1918 18003KT 9999 SCT015 SCT100
BECMG 1819/1821 VRB02KT
TEMPO 1821/1902 7000 RA BKN012
BECMG 1903/1905 36007KT
TEMPO 1909/1913 8000 DZ BKN012 TX30/1819Z TN23/1911Z

Example: see airport list